createdAt,value
2022-12-04T00:01:23.007Z,101196.19
2022-12-04T00:03:59.921Z,101189.43
2022-12-04T00:06:28.309Z,101187.38
2022-12-04T00:08:56.283Z,101185.66
2022-12-04T00:11:27.731Z,101183.11
2022-12-04T00:13:55.745Z,101185.63
2022-12-04T00:16:26.573Z,101187.67
2022-12-04T00:18:54.618Z,101202.92
2022-12-04T00:21:23.914Z,101202.03
2022-12-04T00:23:52.090Z,101204.24
2022-12-04T00:26:25.067Z,101210.11
2022-12-04T00:28:53.440Z,101203.00
2022-12-04T00:31:24.206Z,101200.31
2022-12-04T00:33:52.037Z,101201.70
2022-12-04T00:36:22.898Z,101196.55
2022-12-04T00:38:50.854Z,101197.20
2022-12-04T00:41:23.945Z,101194.08
2022-12-04T00:43:52.307Z,101187.83
2022-12-04T00:46:20.689Z,101181.27
2022-12-04T00:48:48.377Z,101171.16
2022-12-04T00:51:22.112Z,101175.64
2022-12-04T00:53:50.824Z,101184.70
2022-12-04T00:56:22.836Z,101179.60
2022-12-04T00:58:55.511Z,101175.85
2022-12-04T01:01:24.514Z,101169.92
2022-12-04T01:03:53.555Z,101175.86
2022-12-04T01:06:22.953Z,101175.98
2022-12-04T01:08:52.876Z,101177.83
2022-12-04T01:11:23.003Z,101180.39
2022-12-04T01:13:50.870Z,101187.42
2022-12-04T01:16:21.451Z,101195.17
2022-12-04T01:18:49.850Z,101195.92
2022-12-04T01:21:17.917Z,101199.41
2022-12-04T01:23:45.714Z,101192.65
2022-12-04T01:26:13.642Z,101195.25
2022-12-04T01:28:41.241Z,101191.16
2022-12-04T01:31:14.666Z,101183.86
2022-12-04T01:33:43.247Z,101176.34
2022-12-04T01:36:16.712Z,101174.81
2022-12-04T01:38:44.819Z,101166.23
2022-12-04T01:41:13.992Z,101167.08
2022-12-04T01:43:42.157Z,101172.20
2022-12-04T01:46:11.299Z,101165.97
2022-12-04T01:48:52.086Z,101159.25
2022-12-04T01:51:28.964Z,101162.46
2022-12-04T01:54:00.931Z,101165.73
2022-12-04T01:56:58.212Z,101163.36
2022-12-04T01:59:30.803Z,101158.55
2022-12-04T02:02:16.466Z,101153.94
2022-12-04T02:04:44.877Z,101150.48
2022-12-04T02:07:12.768Z,101155.54
2022-12-04T02:09:42.145Z,101161.63
2022-12-04T02:12:32.971Z,101168.10
2022-12-04T02:15:32.604Z,101177.73
2022-12-04T02:18:11.254Z,101171.06
2022-12-04T02:20:57.349Z,101170.08
2022-12-04T02:23:56.862Z,101167.85
2022-12-04T02:26:40.899Z,101171.21
2022-12-04T02:29:40.390Z,101169.49
2022-12-04T02:32:36.097Z,101173.21
2022-12-04T02:35:15.742Z,101170.06
2022-12-04T02:37:47.148Z,101168.68
2022-12-04T02:40:41.571Z,101177.48
2022-12-04T02:43:18.937Z,101186.14
2022-12-04T02:45:55.059Z,101176.57
2022-12-04T02:48:25.936Z,101171.78
2022-12-04T02:50:56.746Z,101178.80
2022-12-04T02:53:30.556Z,101171.55
2022-12-04T02:56:03.230Z,101170.17
2022-12-04T02:58:49.449Z,101161.91
2022-12-04T03:01:21.218Z,101158.83
2022-12-04T03:04:10.711Z,101150.75
2022-12-04T03:06:42.955Z,101154.73
2022-12-04T03:09:34.131Z,101156.62
2022-12-04T03:12:26.160Z,101154.38
2022-12-04T03:15:43.121Z,101143.31
2022-12-04T03:18:22.852Z,101141.98
2022-12-04T03:20:57.649Z,101141.40
2022-12-04T03:23:43.465Z,101139.35
2022-12-04T03:26:22.609Z,101133.55
2022-12-04T03:28:59.246Z,101129.23
2022-12-04T03:31:50.131Z,101134.85
2022-12-04T03:34:38.413Z,101136.66
2022-12-04T03:37:18.201Z,101138.03
2022-12-04T03:40:07.930Z,101136.33
2022-12-04T03:42:56.719Z,101133.65
2022-12-04T03:45:49.663Z,101133.67
2022-12-04T03:48:28.259Z,101129.91
2022-12-04T03:51:11.723Z,101127.16
2022-12-04T03:53:45.790Z,101135.52
2022-12-04T03:56:25.213Z,101138.75
2022-12-04T03:58:58.603Z,101142.25
2022-12-04T04:01:34.358Z,101140.75
2022-12-04T04:04:05.117Z,101136.22
2022-12-04T04:06:37.937Z,101125.54
2022-12-04T04:09:12.094Z,101127.14
2022-12-04T04:11:52.235Z,101131.42
2022-12-04T04:14:42.105Z,101128.06
2022-12-04T04:17:33.525Z,101118.65
2022-12-04T04:20:28.993Z,101117.88
2022-12-04T04:23:16.169Z,101122.02
2022-12-04T04:25:45.576Z,101133.73
2022-12-04T04:28:45.074Z,101136.77
2022-12-04T04:31:36.660Z,101127.50
2022-12-04T04:34:28.312Z,101128.74
2022-12-04T04:37:27.884Z,101126.24
2022-12-04T04:40:11.358Z,101126.32
2022-12-04T04:42:50.691Z,101121.17
2022-12-04T04:45:23.490Z,101122.56
2022-12-04T04:48:00.127Z,101124.77
2022-12-04T04:50:29.208Z,101126.70
2022-12-04T04:53:03.447Z,101128.80
2022-12-04T04:55:34.454Z,101132.75
2022-12-04T04:58:19.143Z,101134.83
2022-12-04T05:01:12.685Z,101134.07
2022-12-04T05:03:41.631Z,101132.42
2022-12-04T05:06:09.656Z,101133.38
2022-12-04T05:08:37.568Z,101137.66
2022-12-04T05:11:05.733Z,101136.83
2022-12-04T05:13:33.792Z,101129.16
2022-12-04T05:16:08.253Z,101130.75
2022-12-04T05:18:35.830Z,101134.52
2022-12-04T05:21:16.393Z,101138.77
2022-12-04T05:23:44.480Z,101136.14
2022-12-04T05:26:12.066Z,101129.78
2022-12-04T05:28:42.082Z,101129.44
2022-12-04T05:31:09.683Z,101131.53
2022-12-04T05:33:37.376Z,101131.95
2022-12-04T05:36:07.640Z,101133.52
2022-12-04T05:38:36.701Z,101134.70
2022-12-04T05:41:06.312Z,101139.31
2022-12-04T05:43:34.370Z,101139.77
2022-12-04T05:46:03.852Z,101142.83
2022-12-04T05:48:32.701Z,101147.86
2022-12-04T05:51:00.396Z,101150.87
2022-12-04T05:53:27.837Z,101148.19
2022-12-04T05:56:00.145Z,101144.27
2022-12-04T05:58:28.443Z,101141.16
2022-12-04T06:00:56.489Z,101143.66
2022-12-04T06:03:24.182Z,101146.16
2022-12-04T06:05:51.859Z,101148.77
2022-12-04T06:08:19.387Z,101150.34
2022-12-04T06:10:47.024Z,101154.33
2022-12-04T06:13:14.499Z,101153.91
2022-12-04T06:15:42.041Z,101156.90
2022-12-04T06:18:09.619Z,101156.76
2022-12-04T06:20:37.208Z,101154.56
2022-12-04T06:23:04.933Z,101154.11
2022-12-04T06:25:32.394Z,101154.20
2022-12-04T06:28:00.002Z,101151.11
2022-12-04T06:30:27.501Z,101150.11
2022-12-04T06:32:55.019Z,101147.21
2022-12-04T06:35:22.493Z,101153.70
2022-12-04T06:37:50.004Z,101157.94
2022-12-04T06:40:17.626Z,101159.16
2022-12-04T06:42:45.186Z,101159.27
2022-12-04T06:45:12.744Z,101162.35
2022-12-04T06:47:40.228Z,101160.86
2022-12-04T06:50:08.256Z,101159.54
2022-12-04T06:52:35.786Z,101160.20
2022-12-04T06:55:03.584Z,101165.29
2022-12-04T06:57:31.035Z,101169.83
2022-12-04T06:59:58.710Z,101173.40
2022-12-04T07:02:26.575Z,101176.05
2022-12-04T07:04:56.280Z,101170.79
2022-12-04T07:07:23.797Z,101166.75
2022-12-04T07:09:51.296Z,101164.83
2022-12-04T07:12:18.789Z,101159.77
2022-12-04T07:14:46.242Z,101163.64
2022-12-04T07:17:13.787Z,101166.23
2022-12-04T07:19:41.636Z,101165.94
2022-12-04T07:22:09.169Z,101172.83
2022-12-04T07:24:39.737Z,101177.52
2022-12-04T07:27:07.222Z,101177.90
2022-12-04T07:29:34.683Z,101172.08
2022-12-04T07:32:02.431Z,101165.83
2022-12-04T07:34:30.662Z,101160.12
2022-12-04T07:36:58.147Z,101154.42
2022-12-04T07:39:25.644Z,101163.04
2022-12-04T07:41:53.198Z,101165.33
2022-12-04T07:44:20.767Z,101162.57
2022-12-04T07:46:48.250Z,101156.27
2022-12-04T07:49:16.322Z,101154.18
2022-12-04T07:51:43.912Z,101165.11
2022-12-04T07:54:11.471Z,101173.52
2022-12-04T07:56:38.916Z,101175.98
2022-12-04T07:59:06.434Z,101174.33
2022-12-04T08:01:33.962Z,101172.87
2022-12-04T08:04:02.947Z,101172.58
2022-12-04T08:06:33.500Z,101174.17
2022-12-04T08:09:07.771Z,101176.40
2022-12-04T08:11:37.515Z,101179.71
2022-12-04T08:14:06.183Z,101174.81
2022-12-04T08:16:33.976Z,101166.82
2022-12-04T08:19:03.180Z,101168.63
2022-12-04T08:21:32.245Z,101159.04
2022-12-04T08:24:00.989Z,101160.59
2022-12-04T08:26:30.587Z,101154.93
2022-12-04T08:28:58.523Z,101156.88
2022-12-04T08:31:29.074Z,101162.85
2022-12-04T08:33:58.164Z,101167.54
2022-12-04T08:36:26.549Z,101166.35
2022-12-04T08:38:54.622Z,101170.38
2022-12-04T08:41:24.600Z,101169.59
2022-12-04T08:43:54.917Z,101168.95
2022-12-04T08:46:25.481Z,101171.52
2022-12-04T08:48:54.068Z,101173.08
2022-12-04T08:51:24.549Z,101178.25
2022-12-04T08:53:57.662Z,101170.27
2022-12-04T08:56:27.228Z,101165.89
2022-12-04T08:58:56.435Z,101164.04
2022-12-04T09:01:25.720Z,101163.55
2022-12-04T09:03:53.840Z,101165.30
2022-12-04T09:06:22.827Z,101161.16
2022-12-04T09:08:57.288Z,101159.65
2022-12-04T09:11:27.918Z,101157.10
2022-12-04T09:13:55.983Z,101153.67
2022-12-04T09:16:25.007Z,101148.41
2022-12-04T09:18:53.233Z,101152.50
2022-12-04T09:21:22.129Z,101146.25
2022-12-04T09:23:49.843Z,101150.17
2022-12-04T09:26:33.816Z,101148.26
2022-12-04T09:29:04.320Z,101146.70
2022-12-04T09:31:32.798Z,101141.42
2022-12-04T09:34:01.618Z,101140.17
2022-12-04T09:36:29.661Z,101137.45
2022-12-04T09:38:57.890Z,101132.06
2022-12-04T09:41:36.909Z,101126.27
2022-12-04T09:44:15.130Z,101123.28
2022-12-04T09:47:00.554Z,101129.29
2022-12-04T09:49:34.139Z,101131.43
2022-12-04T09:52:07.313Z,101131.48
2022-12-04T09:54:42.476Z,101130.05
2022-12-04T09:57:24.950Z,101126.15
2022-12-04T09:59:53.394Z,101127.54
2022-12-04T10:02:41.679Z,101123.34
2022-12-04T10:05:36.462Z,101124.27
2022-12-04T10:08:26.299Z,101118.55
2022-12-04T10:11:17.572Z,101117.02
2022-12-04T10:14:17.066Z,101117.56
2022-12-04T10:17:06.306Z,101119.27
2022-12-04T10:19:57.087Z,101116.03
2022-12-04T10:22:40.864Z,101113.85
2022-12-04T10:25:25.848Z,101111.20
2022-12-04T10:27:57.896Z,101113.58
2022-12-04T10:30:31.106Z,101117.83
2022-12-04T10:33:04.784Z,101110.21
2022-12-04T10:35:35.734Z,101106.46
2022-12-04T10:38:29.491Z,101113.62
2022-12-04T10:41:08.871Z,101115.27
2022-12-04T10:43:45.257Z,101115.72
2022-12-04T10:46:25.296Z,101114.95
2022-12-04T10:48:57.881Z,101113.00
2022-12-04T10:51:25.757Z,101109.86
2022-12-04T10:53:53.358Z,101106.98
2022-12-04T10:56:26.242Z,101109.64
2022-12-04T10:59:05.934Z,101106.26
2022-12-04T11:01:35.407Z,101104.16
2022-12-04T11:04:09.156Z,101096.84
2022-12-04T11:06:36.795Z,101098.36
2022-12-04T11:09:04.604Z,101105.00
2022-12-04T11:11:35.337Z,101094.30
2022-12-04T11:14:13.215Z,101095.68
2022-12-04T11:16:45.622Z,101097.56
2022-12-04T11:19:30.372Z,101095.81
2022-12-04T11:22:12.230Z,101089.16
2022-12-04T11:24:42.713Z,101091.02
2022-12-04T11:27:22.879Z,101091.52
2022-12-04T11:29:50.708Z,101087.86
2022-12-04T11:32:28.936Z,101087.41
2022-12-04T11:35:01.864Z,101089.48
2022-12-04T11:37:34.002Z,101086.64
2022-12-04T11:40:07.940Z,101085.29
2022-12-04T11:42:35.472Z,101091.30
2022-12-04T11:45:18.180Z,101094.60
2022-12-04T11:47:54.916Z,101084.61
2022-12-04T11:50:44.476Z,101084.34
2022-12-04T11:53:23.956Z,101087.45
2022-12-04T11:56:08.532Z,101091.65
2022-12-04T11:59:08.099Z,101093.40
2022-12-04T12:01:58.257Z,101089.00
2022-12-04T12:04:36.163Z,101097.27
2022-12-04T12:07:20.646Z,101099.96
2022-12-04T12:10:04.298Z,101099.33
2022-12-04T12:12:39.436Z,101094.13
2022-12-04T12:15:33.031Z,101095.48
2022-12-04T12:18:29.188Z,101097.89
2022-12-04T12:21:06.172Z,101092.38
2022-12-04T12:23:42.404Z,101088.97
2022-12-04T12:26:13.038Z,101083.36
2022-12-04T12:29:04.195Z,101081.46
2022-12-04T12:32:03.812Z,101089.33
2022-12-04T12:34:34.452Z,101084.17
2022-12-04T12:37:11.515Z,101080.07
2022-12-04T12:40:04.534Z,101083.07
2022-12-04T12:42:43.947Z,101089.59
2022-12-04T12:45:33.265Z,101093.25
2022-12-04T12:48:12.806Z,101098.41
2022-12-04T12:51:08.862Z,101091.52
2022-12-04T12:53:45.390Z,101095.80
2022-12-04T12:56:14.015Z,101099.95
2022-12-04T12:59:00.379Z,101099.48
2022-12-04T13:01:38.778Z,101096.48
2022-12-04T13:04:09.301Z,101088.98
2022-12-04T13:06:43.401Z,101086.70
2022-12-04T13:09:36.885Z,101083.05
2022-12-04T13:12:16.525Z,101086.03
2022-12-04T13:14:48.827Z,101084.70
2022-12-04T13:17:38.351Z,101083.67
2022-12-04T13:20:15.543Z,101082.59
2022-12-04T13:22:58.959Z,101094.59
2022-12-04T13:25:42.166Z,101090.58
2022-12-04T13:28:29.548Z,101095.05
2022-12-04T13:31:03.332Z,101097.04
2022-12-04T13:34:01.382Z,101103.73
2022-12-04T13:36:28.836Z,101094.23
2022-12-04T13:39:08.739Z,101090.77
2022-12-04T13:41:39.150Z,101088.86
2022-12-04T13:44:34.224Z,101087.14
2022-12-04T13:47:06.506Z,101089.56
2022-12-04T13:49:36.977Z,101087.38
2022-12-04T13:52:19.812Z,101082.46
2022-12-04T13:55:00.274Z,101082.83
2022-12-04T13:57:28.284Z,101082.20
2022-12-04T14:00:23.542Z,101082.34
2022-12-04T14:02:54.485Z,101080.77
2022-12-04T14:05:41.251Z,101078.50
2022-12-04T14:08:25.068Z,101080.52
2022-12-04T14:11:17.097Z,101080.85
2022-12-04T14:13:49.354Z,101082.05
2022-12-04T14:16:38.797Z,101080.21
2022-12-04T14:19:07.702Z,101079.23
2022-12-04T14:21:44.260Z,101084.55
2022-12-04T14:24:30.687Z,101085.18
2022-12-04T14:27:14.309Z,101079.64
2022-12-04T14:29:48.019Z,101082.77
2022-12-04T14:32:21.402Z,101081.15
2022-12-04T14:34:49.905Z,101086.32
2022-12-04T14:37:28.156Z,101080.80
2022-12-04T14:39:57.342Z,101083.35
2022-12-04T14:42:27.891Z,101085.98
2022-12-04T14:45:00.803Z,101086.92
2022-12-04T14:47:48.314Z,101088.48
2022-12-04T14:50:42.278Z,101092.41
2022-12-04T14:53:27.451Z,101096.27
2022-12-04T14:56:15.498Z,101101.58
2022-12-04T14:58:44.156Z,101109.14
2022-12-04T15:01:37.864Z,101107.27
2022-12-04T15:04:14.914Z,101100.92
2022-12-04T15:06:46.485Z,101097.31
2022-12-04T15:09:33.812Z,101099.26
2022-12-04T15:12:27.503Z,101095.50
2022-12-04T15:14:59.332Z,101092.74
2022-12-04T15:17:26.837Z,101095.39
2022-12-04T15:19:54.374Z,101096.61
2022-12-04T15:22:30.389Z,101099.70
2022-12-04T15:24:58.540Z,101097.06
2022-12-04T15:27:32.363Z,101093.63
2022-12-04T15:30:02.169Z,101096.94
2022-12-04T15:32:31.602Z,101099.71
2022-12-04T15:35:06.719Z,101096.83
2022-12-04T15:37:34.888Z,101100.82
2022-12-04T15:40:07.288Z,101097.27
2022-12-04T15:42:34.834Z,101095.45
2022-12-04T15:45:24.613Z,101089.96
2022-12-04T15:47:53.923Z,101088.73
2022-12-04T15:50:26.851Z,101089.73
2022-12-04T15:53:30.555Z,101092.58
2022-12-04T15:56:09.569Z,101097.16
2022-12-04T15:58:39.724Z,101100.94
2022-12-04T16:01:10.162Z,101099.08
2022-12-04T16:03:47.833Z,101097.24
2022-12-04T16:06:21.475Z,101093.23
2022-12-04T16:08:55.112Z,101086.77
2022-12-04T16:11:32.506Z,101091.67
2022-12-04T16:14:05.490Z,101086.15
2022-12-04T16:16:33.806Z,101083.55
2022-12-04T16:19:12.318Z,101082.55
2022-12-04T16:21:40.472Z,101086.58
2022-12-04T16:24:12.775Z,101080.71
2022-12-04T16:26:40.978Z,101077.09
2022-12-04T16:29:08.885Z,101076.00
2022-12-04T16:31:37.918Z,101071.14
2022-12-04T16:34:05.579Z,101070.39
2022-12-04T16:36:33.323Z,101069.40
2022-12-04T16:39:01.493Z,101065.91
2022-12-04T16:41:29.090Z,101066.55
2022-12-04T16:44:00.847Z,101062.89
2022-12-04T16:46:29.879Z,101056.35
2022-12-04T16:48:59.516Z,101055.32
2022-12-04T16:51:30.649Z,101048.42
2022-12-04T16:53:58.124Z,101056.29
2022-12-04T16:56:25.713Z,101054.70
2022-12-04T16:58:53.303Z,101061.74
2022-12-04T17:01:22.622Z,101064.98
2022-12-04T17:03:50.644Z,101067.73
2022-12-04T17:06:19.354Z,101074.93
2022-12-04T17:08:47.448Z,101074.95
2022-12-04T17:11:16.600Z,101078.98
2022-12-04T17:13:44.613Z,101065.70
2022-12-04T17:16:15.071Z,101063.37
2022-12-04T17:18:44.401Z,101065.46
2022-12-04T17:21:13.601Z,101058.96
2022-12-04T17:23:42.133Z,101057.42
2022-12-04T17:26:12.740Z,101058.95
2022-12-04T17:28:40.759Z,101061.17
2022-12-04T17:31:18.526Z,101058.94
2022-12-04T17:33:46.827Z,101064.81
2022-12-04T17:36:16.988Z,101065.02
2022-12-04T17:38:44.798Z,101065.80
2022-12-04T17:41:14.302Z,101065.74
2022-12-04T17:43:43.138Z,101061.38
2022-12-04T17:46:14.924Z,101063.46
2022-12-04T17:48:43.210Z,101073.30
2022-12-04T17:51:22.043Z,101069.16
2022-12-04T17:53:49.927Z,101077.34
2022-12-04T17:56:20.628Z,101077.51
2022-12-04T17:58:48.984Z,101075.60
2022-12-04T18:01:23.239Z,101082.39
2022-12-04T18:03:53.241Z,101084.12
2022-12-04T18:06:22.519Z,101082.04
2022-12-04T18:08:51.001Z,101082.66
2022-12-04T18:11:21.002Z,101080.90
2022-12-04T18:13:53.249Z,101078.79
2022-12-04T18:16:20.891Z,101078.45
2022-12-04T18:18:48.616Z,101080.44
2022-12-04T18:21:16.116Z,101073.69
2022-12-04T18:23:46.440Z,101069.25
2022-12-04T18:26:19.648Z,101068.36
2022-12-04T18:28:47.966Z,101072.70
2022-12-04T18:31:17.386Z,101077.64
2022-12-04T18:33:46.354Z,101080.75
2022-12-04T18:36:19.591Z,101079.96
2022-12-04T18:38:52.480Z,101083.24
2022-12-04T18:41:20.083Z,101085.64
2022-12-04T18:43:47.625Z,101086.34
2022-12-04T18:46:16.824Z,101089.10
2022-12-04T18:48:46.362Z,101084.40
2022-12-04T18:51:18.051Z,101087.52
2022-12-04T18:53:45.617Z,101090.75
2022-12-04T18:56:13.422Z,101095.85
2022-12-04T18:58:42.716Z,101102.41
2022-12-04T19:01:13.976Z,101111.52
2022-12-04T19:03:42.312Z,101105.89
2022-12-04T19:06:10.002Z,101113.10
2022-12-04T19:08:43.014Z,101112.55
2022-12-04T19:11:14.446Z,101116.55
2022-12-04T19:13:42.208Z,101115.73
2022-12-04T19:16:16.831Z,101118.86
2022-12-04T19:18:46.522Z,101117.60
2022-12-04T19:21:16.113Z,101116.92
2022-12-04T19:23:50.744Z,101115.81
2022-12-04T19:26:18.688Z,101113.53
2022-12-04T19:28:46.823Z,101122.52
2022-12-04T19:31:20.126Z,101139.51
2022-12-04T19:33:47.963Z,101142.16
2022-12-04T19:36:16.528Z,101145.63
2022-12-04T19:38:44.133Z,101141.02
2022-12-04T19:41:14.752Z,101144.58
2022-12-04T19:43:45.041Z,101139.84
2022-12-04T19:46:15.753Z,101147.41
2022-12-04T19:48:47.001Z,101154.69
2022-12-04T19:51:17.736Z,101154.13
2022-12-04T19:53:47.252Z,101155.47
2022-12-04T19:56:21.343Z,101158.09
2022-12-04T19:58:49.219Z,101157.52
2022-12-04T20:01:19.420Z,101166.19
2022-12-04T20:03:47.420Z,101171.13
2022-12-04T20:06:18.237Z,101170.81
2022-12-04T20:08:46.915Z,101168.08
2022-12-04T20:11:17.496Z,101172.99
2022-12-04T20:13:46.818Z,101167.12
2022-12-04T20:16:17.264Z,101177.16
2022-12-04T20:18:45.569Z,101175.92
2022-12-04T20:21:14.137Z,101175.52
2022-12-04T20:23:46.346Z,101177.61
2022-12-04T20:26:15.056Z,101176.82
2022-12-04T20:28:42.731Z,101176.10
2022-12-04T20:31:13.268Z,101181.04
2022-12-04T20:33:41.839Z,101175.73
2022-12-04T20:36:10.603Z,101170.59
2022-12-04T20:38:39.302Z,101170.48
2022-12-04T20:41:09.113Z,101163.64
2022-12-04T20:43:37.012Z,101154.09
2022-12-04T20:46:23.201Z,101144.67
2022-12-04T20:48:53.446Z,101144.02
2022-12-04T20:51:23.610Z,101137.39
2022-12-04T20:53:52.387Z,101136.02
2022-12-04T20:56:21.856Z,101137.95
2022-12-04T20:58:49.427Z,101133.40
2022-12-04T21:01:19.031Z,101128.61
2022-12-04T21:03:47.431Z,101130.59
2022-12-04T21:06:21.261Z,101127.83
2022-12-04T21:08:56.842Z,101125.17
2022-12-04T21:11:28.052Z,101125.98
2022-12-04T21:14:13.037Z,101128.31
2022-12-04T21:16:41.560Z,101128.08
2022-12-04T21:19:11.512Z,101124.34
2022-12-04T21:21:39.523Z,101120.41
2022-12-04T21:24:09.512Z,101118.52
2022-12-04T21:26:37.667Z,101115.16
2022-12-04T21:29:07.548Z,101118.91
2022-12-04T21:31:36.400Z,101117.54
2022-12-04T21:34:06.714Z,101110.73
2022-12-04T21:36:34.537Z,101111.06
2022-12-04T21:39:02.964Z,101108.41
2022-12-04T21:41:46.789Z,101106.67
2022-12-04T21:44:17.037Z,101109.58
2022-12-04T21:46:45.624Z,101112.06
2022-12-04T21:49:14.443Z,101112.20
2022-12-04T21:51:58.848Z,101113.74
2022-12-04T21:54:28.201Z,101113.21
2022-12-04T21:56:56.971Z,101117.42
2022-12-04T21:59:25.789Z,101125.48
2022-12-04T22:01:54.490Z,101126.71
2022-12-04T22:04:22.929Z,101129.30
2022-12-04T22:06:50.732Z,101125.36
2022-12-04T22:09:18.310Z,101124.58
2022-12-04T22:11:45.842Z,101122.88
2022-12-04T22:14:14.054Z,101122.55
2022-12-04T22:16:43.010Z,101121.23
2022-12-04T22:19:12.399Z,101113.04
2022-12-04T22:21:40.471Z,101111.27
2022-12-04T22:24:10.301Z,101110.30
2022-12-04T22:26:38.475Z,101114.50
2022-12-04T22:29:27.295Z,101114.41
2022-12-04T22:31:54.457Z,101111.48
2022-12-04T22:34:22.065Z,101108.91
2022-12-04T22:36:50.390Z,101106.34
2022-12-04T22:39:17.943Z,101108.34
2022-12-04T22:41:45.461Z,101103.20
2022-12-04T22:44:12.965Z,101097.09
2022-12-04T22:46:40.546Z,101094.40
2022-12-04T22:49:08.089Z,101091.04
2022-12-04T22:51:35.612Z,101083.39
2022-12-04T22:54:03.154Z,101082.05
2022-12-04T22:56:31.942Z,101081.86
2022-12-04T22:59:00.267Z,101083.23
2022-12-04T23:01:33.878Z,101086.64
2022-12-04T23:04:03.342Z,101088.27
2022-12-04T23:06:33.437Z,101091.13
2022-12-04T23:09:09.561Z,101092.70
2022-12-04T23:11:37.635Z,101091.05
2022-12-04T23:14:07.800Z,101088.55
2022-12-04T23:16:37.076Z,101087.20
2022-12-04T23:19:06.630Z,101087.39
2022-12-04T23:21:34.749Z,101086.72
2022-12-04T23:24:02.636Z,101084.94
2022-12-04T23:26:33.433Z,101074.97
2022-12-04T23:29:01.846Z,101071.89
2022-12-04T23:31:30.452Z,101069.04
2022-12-04T23:33:58.161Z,101063.04
2022-12-04T23:36:25.816Z,101057.91
2022-12-04T23:38:53.427Z,101061.15
2022-12-04T23:41:24.335Z,101066.48
2022-12-04T23:43:53.590Z,101066.14
2022-12-04T23:46:27.217Z,101065.77
2022-12-04T23:48:55.368Z,101066.07
2022-12-04T23:51:23.905Z,101056.67
2022-12-04T23:53:51.812Z,101050.58
2022-12-04T23:56:27.612Z,101048.04
2022-12-04T23:58:57.221Z,101051.87
